sensor_id;sensor_type;location;lat;lon;timestamp;temperature;humidity
44433;DHT22;30136;50.600;4.608;2022-10-13T00:00:40;24.70;57.80
44433;DHT22;30136;50.600;4.608;2022-10-13T00:01:44;24.70;57.80
44433;DHT22;30136;50.600;4.608;2022-10-13T00:02:45;24.80;57.80
44433;DHT22;30136;50.600;4.608;2022-10-13T00:03:46;24.80;57.80
44433;DHT22;30136;50.600;4.608;2022-10-13T00:04:53;24.80;57.80
44433;DHT22;30136;50.600;4.608;2022-10-13T00:05:54;24.70;57.80
44433;DHT22;30136;50.600;4.608;2022-10-13T00:06:54;24.70;57.80
44433;DHT22;30136;50.600;4.608;2022-10-13T00:08:00;24.70;57.80
44433;DHT22;30136;50.600;4.608;2022-10-13T00:09:04;24.70;57.80
44433;DHT22;30136;50.600;4.608;2022-10-13T00:10:05;24.70;57.90
44433;DHT22;30136;50.600;4.608;2022-10-13T00:11:11;24.70;57.80
44433;DHT22;30136;50.600;4.608;2022-10-13T00:12:17;24.70;57.90
44433;DHT22;30136;50.600;4.608;2022-10-13T00:13:19;24.70;58.00
44433;DHT22;30136;50.600;4.608;2022-10-13T00:14:20;24.70;58.00
44433;DHT22;30136;50.600;4.608;2022-10-13T00:15:21;24.70;58.00
44433;DHT22;30136;50.600;4.608;2022-10-13T00:16:26;24.70;58.10
44433;DHT22;30136;50.600;4.608;2022-10-13T00:17:27;24.70;58.10
44433;DHT22;30136;50.600;4.608;2022-10-13T00:18:28;24.70;58.10
44433;DHT22;30136;50.600;4.608;2022-10-13T00:19:30;24.70;58.20
44433;DHT22;30136;50.600;4.608;2022-10-13T00:20:33;24.70;58.20
44433;DHT22;30136;50.600;4.608;2022-10-13T00:21:34;24.70;58.30
44433;DHT22;30136;50.600;4.608;2022-10-13T00:22:35;24.70;58.30
44433;DHT22;30136;50.600;4.608;2022-10-13T00:23:36;24.60;58.20
44433;DHT22;30136;50.600;4.608;2022-10-13T00:24:37;24.60;58.20
44433;DHT22;30136;50.600;4.608;2022-10-13T00:25:42;24.70;58.30
44433;DHT22;30136;50.600;4.608;2022-10-13T00:26:44;24.70;58.30
44433;DHT22;30136;50.600;4.608;2022-10-13T00:27:50;24.60;58.20
44433;DHT22;30136;50.600;4.608;2022-10-13T00:28:55;24.60;58.20
44433;DHT22;30136;50.600;4.608;2022-10-13T00:29:56;24.60;58.30
44433;DHT22;30136;50.600;4.608;2022-10-13T00:30:57;24.60;58.40
44433;DHT22;30136;50.600;4.608;2022-10-13T00:31:58;24.60;58.30
44433;DHT22;30136;50.600;4.608;2022-10-13T00:32:58;24.60;58.30
44433;DHT22;30136;50.600;4.608;2022-10-13T00:34:00;24.60;58.30
44433;DHT22;30136;50.600;4.608;2022-10-13T00:35:01;24.60;58.40
44433;DHT22;30136;50.600;4.608;2022-10-13T00:36:05;24.60;58.40
44433;DHT22;30136;50.600;4.608;2022-10-13T00:37:06;24.50;58.40
44433;DHT22;30136;50.600;4.608;2022-10-13T00:38:07;24.60;58.50
44433;DHT22;30136;50.600;4.608;2022-10-13T00:39:08;24.50;58.40
44433;DHT22;30136;50.600;4.608;2022-10-13T00:40:09;24.60;58.50
44433;DHT22;30136;50.600;4.608;2022-10-13T00:41:10;24.50;58.40
44433;DHT22;30136;50.600;4.608;2022-10-13T00:42:14;24.50;58.40
44433;DHT22;30136;50.600;4.608;2022-10-13T00:43:20;24.60;58.50
44433;DHT22;30136;50.600;4.608;2022-10-13T00:46:01;24.60;58.50
44433;DHT22;30136;50.600;4.608;2022-10-13T00:47:02;24.60;58.40
44433;DHT22;30136;50.600;4.608;2022-10-13T00:48:04;24.60;58.40
44433;DHT22;30136;50.600;4.608;2022-10-13T00:49:08;24.60;58.30
44433;DHT22;30136;50.600;4.608;2022-10-13T00:50:15;24.60;58.30
44433;DHT22;30136;50.600;4.608;2022-10-13T00:51:24;24.50;58.30
44433;DHT22;30136;50.600;4.608;2022-10-13T00:52:30;24.50;58.30
44433;DHT22;30136;50.600;4.608;2022-10-13T00:53:34;24.60;58.30
44433;DHT22;30136;50.600;4.608;2022-10-13T00:54:36;24.60;58.30
44433;DHT22;30136;50.600;4.608;2022-10-13T00:55:38;24.60;58.30
44433;DHT22;30136;50.600;4.608;2022-10-13T00:56:40;24.60;58.30
44433;DHT22;30136;50.600;4.608;2022-10-13T00:57:43;24.50;58.20
44433;DHT22;30136;50.600;4.608;2022-10-13T00:58:46;24.50;58.20
44433;DHT22;30136;50.600;4.608;2022-10-13T00:59:48;24.50;58.20
44433;DHT22;30136;50.600;4.608;2022-10-13T01:00:50;24.50;58.20
44433;DHT22;30136;50.600;4.608;2022-10-13T01:01:51;24.50;58.20
44433;DHT22;30136;50.600;4.608;2022-10-13T01:02:52;24.50;58.20
44433;DHT22;30136;50.600;4.608;2022-10-13T01:03:53;24.50;58.30
44433;DHT22;30136;50.600;4.608;2022-10-13T01:04:55;24.60;58.30
44433;DHT22;30136;50.600;4.608;2022-10-13T01:06:00;24.60;58.30
44433;DHT22;30136;50.600;4.608;2022-10-13T01:07:02;24.60;58.30
44433;DHT22;30136;50.600;4.608;2022-10-13T01:08:04;24.60;58.20
44433;DHT22;30136;50.600;4.608;2022-10-13T01:09:05;24.60;58.20
44433;DHT22;30136;50.600;4.608;2022-10-13T01:10:07;24.50;58.20
44433;DHT22;30136;50.600;4.608;2022-10-13T01:12:35;24.50;58.20
44433;DHT22;30136;50.600;4.608;2022-10-13T01:31:53;24.60;58.00
44433;DHT22;30136;50.600;4.608;2022-10-13T01:34:37;24.60;57.90
44433;DHT22;30136;50.600;4.608;2022-10-13T01:35:50;24.60;58.00
44433;DHT22;30136;50.600;4.608;2022-10-13T01:37:06;24.60;58.00
44433;DHT22;30136;50.600;4.608;2022-10-13T01:40:01;24.60;58.00
44433;DHT22;30136;50.600;4.608;2022-10-13T01:41:41;24.60;58.00
44433;DHT22;30136;50.600;4.608;2022-10-13T01:44:28;24.60;58.00
44433;DHT22;30136;50.600;4.608;2022-10-13T01:45:45;24.60;58.00
44433;DHT22;30136;50.600;4.608;2022-10-13T01:46:49;24.60;58.00
44433;DHT22;30136;50.600;4.608;2022-10-13T01:47:51;24.60;58.00
44433;DHT22;30136;50.600;4.608;2022-10-13T01:48:55;24.60;58.10
44433;DHT22;30136;50.600;4.608;2022-10-13T01:49:58;24.60;58.10
44433;DHT22;30136;50.600;4.608;2022-10-13T01:51:00;24.60;58.10
44433;DHT22;30136;50.600;4.608;2022-10-13T01:52:05;24.60;58.10
44433;DHT22;30136;50.600;4.608;2022-10-13T01:53:09;24.50;58.10
44433;DHT22;30136;50.600;4.608;2022-10-13T01:54:11;24.60;58.10
44433;DHT22;30136;50.600;4.608;2022-10-13T01:55:13;24.50;58.20
44433;DHT22;30136;50.600;4.608;2022-10-13T01:56:15;24.50;58.10
44433;DHT22;30136;50.600;4.608;2022-10-13T01:57:43;24.50;58.20
44433;DHT22;30136;50.600;4.608;2022-10-13T01:58:45;24.60;58.20
44433;DHT22;30136;50.600;4.608;2022-10-13T01:59:48;24.50;58.10
44433;DHT22;30136;50.600;4.608;2022-10-13T02:02:53;24.50;58.20
44433;DHT22;30136;50.600;4.608;2022-10-13T02:08:57;24.60;58.40
44433;DHT22;30136;50.600;4.608;2022-10-13T02:10:18;24.50;58.20
44433;DHT22;30136;50.600;4.608;2022-10-13T02:11:23;24.50;58.20
44433;DHT22;30136;50.600;4.608;2022-10-13T02:12:30;24.50;58.30
44433;DHT22;30136;50.600;4.608;2022-10-13T02:14:28;24.50;58.40
44433;DHT22;30136;50.600;4.608;2022-10-13T02:15:12;24.50;58.40
44433;DHT22;30136;50.600;4.608;2022-10-13T02:16:16;24.50;58.40
44433;DHT22;30136;50.600;4.608;2022-10-13T02:17:21;24.50;58.40
44433;DHT22;30136;50.600;4.608;2022-10-13T02:18:24;24.50;58.30
44433;DHT22;30136;50.600;4.608;2022-10-13T02:19:26;24.50;58.30
44433;DHT22;30136;50.600;4.608;2022-10-13T02:20:29;24.50;58.30
44433;DHT22;30136;50.600;4.608;2022-10-13T02:21:30;24.50;58.30
44433;DHT22;30136;50.600;4.608;2022-10-13T02:22:39;24.50;58.20
44433;DHT22;30136;50.600;4.608;2022-10-13T02:23:43;24.40;58.20
44433;DHT22;30136;50.600;4.608;2022-10-13T02:24:44;24.40;58.20
44433;DHT22;30136;50.600;4.608;2022-10-13T02:25:46;24.40;58.10
44433;DHT22;30136;50.600;4.608;2022-10-13T02:26:50;24.40;58.00
44433;DHT22;30136;50.600;4.608;2022-10-13T02:27:54;24.40;57.90
44433;DHT22;30136;50.600;4.608;2022-10-13T02:29:17;24.40;57.80
44433;DHT22;30136;50.600;4.608;2022-10-13T02:30:23;24.40;57.80
44433;DHT22;30136;50.600;4.608;2022-10-13T02:31:27;24.40;57.80
44433;DHT22;30136;50.600;4.608;2022-10-13T02:32:28;24.40;57.80
44433;DHT22;30136;50.600;4.608;2022-10-13T02:33:28;24.40;57.70
44433;DHT22;30136;50.600;4.608;2022-10-13T02:34:29;24.40;57.60
44433;DHT22;30136;50.600;4.608;2022-10-13T02:35:30;24.40;57.60
44433;DHT22;30136;50.600;4.608;2022-10-13T02:36:35;24.40;57.70
44433;DHT22;30136;50.600;4.608;2022-10-13T02:37:39;24.40;57.70
44433;DHT22;30136;50.600;4.608;2022-10-13T02:38:42;24.40;57.70
44433;DHT22;30136;50.600;4.608;2022-10-13T02:39:44;24.40;57.60
44433;DHT22;30136;50.600;4.608;2022-10-13T02:40:45;24.40;57.70
44433;DHT22;30136;50.600;4.608;2022-10-13T02:41:46;24.40;57.80
44433;DHT22;30136;50.600;4.608;2022-10-13T02:42:47;24.40;57.60
44433;DHT22;30136;50.600;4.608;2022-10-13T02:43:47;24.40;57.60
44433;DHT22;30136;50.600;4.608;2022-10-13T02:44:48;24.40;57.60
44433;DHT22;30136;50.600;4.608;2022-10-13T02:45:49;24.40;57.60
44433;DHT22;30136;50.600;4.608;2022-10-13T02:46:50;24.40;57.50
44433;DHT22;30136;50.600;4.608;2022-10-13T02:47:51;24.50;57.60
44433;DHT22;30136;50.600;4.608;2022-10-13T02:48:52;24.40;57.60
44433;DHT22;30136;50.600;4.608;2022-10-13T02:49:52;24.40;57.70
44433;DHT22;30136;50.600;4.608;2022-10-13T02:50:53;24.40;57.70
44433;DHT22;30136;50.600;4.608;2022-10-13T02:51:54;24.50;57.60
44433;DHT22;30136;50.600;4.608;2022-10-13T02:52:55;24.50;57.60
44433;DHT22;30136;50.600;4.608;2022-10-13T02:53:56;24.40;57.60
44433;DHT22;30136;50.600;4.608;2022-10-13T02:54:57;24.40;57.60
44433;DHT22;30136;50.600;4.608;2022-10-13T02:55:58;24.40;57.50
44433;DHT22;30136;50.600;4.608;2022-10-13T02:56:59;24.40;57.60
44433;DHT22;30136;50.600;4.608;2022-10-13T02:57:59;24.40;57.70
44433;DHT22;30136;50.600;4.608;2022-10-13T02:59:00;24.40;58.40
44433;DHT22;30136;50.600;4.608;2022-10-13T03:00:02;24.40;57.60
44433;DHT22;30136;50.600;4.608;2022-10-13T03:02:13;24.40;57.70
44433;DHT22;30136;50.600;4.608;2022-10-13T03:03:14;24.50;57.70
44433;DHT22;30136;50.600;4.608;2022-10-13T03:04:15;24.50;57.70
44433;DHT22;30136;50.600;4.608;2022-10-13T03:05:17;24.50;58.40
44433;DHT22;30136;50.600;4.608;2022-10-13T03:06:18;24.50;57.80
44433;DHT22;30136;50.600;4.608;2022-10-13T03:07:18;24.50;58.00
44433;DHT22;30136;50.600;4.608;2022-10-13T03:08:19;24.50;57.90
44433;DHT22;30136;50.600;4.608;2022-10-13T03:09:20;24.40;57.90
44433;DHT22;30136;50.600;4.608;2022-10-13T03:10:21;24.40;57.80
44433;DHT22;30136;50.600;4.608;2022-10-13T03:11:24;24.40;57.70
44433;DHT22;30136;50.600;4.608;2022-10-13T03:12:25;24.40;57.90
44433;DHT22;30136;50.600;4.608;2022-10-13T03:13:26;24.40;57.80
44433;DHT22;30136;50.600;4.608;2022-10-13T03:14:27;24.40;57.80
44433;DHT22;30136;50.600;4.608;2022-10-13T03:15:28;24.40;57.90
44433;DHT22;30136;50.600;4.608;2022-10-13T03:16:32;24.40;58.00
44433;DHT22;30136;50.600;4.608;2022-10-13T03:17:33;24.40;57.90
44433;DHT22;30136;50.600;4.608;2022-10-13T03:18:34;24.40;58.00
44433;DHT22;30136;50.600;4.608;2022-10-13T03:19:35;24.40;57.90
44433;DHT22;30136;50.600;4.608;2022-10-13T03:20:36;24.40;58.00
44433;DHT22;30136;50.600;4.608;2022-10-13T03:21:37;24.40;57.80
44433;DHT22;30136;50.600;4.608;2022-10-13T03:22:38;24.40;57.80
44433;DHT22;30136;50.600;4.608;2022-10-13T03:23:39;24.40;57.70
44433;DHT22;30136;50.600;4.608;2022-10-13T03:24:41;24.40;57.80
44433;DHT22;30136;50.600;4.608;2022-10-13T03:25:42;24.40;57.80
44433;DHT22;30136;50.600;4.608;2022-10-13T03:26:42;24.40;57.80
44433;DHT22;30136;50.600;4.608;2022-10-13T03:27:43;24.40;57.80
44433;DHT22;30136;50.600;4.608;2022-10-13T03:28:51;24.40;57.70
44433;DHT22;30136;50.600;4.608;2022-10-13T03:29:52;24.40;57.70
44433;DHT22;30136;50.600;4.608;2022-10-13T03:31:03;24.40;57.70
44433;DHT22;30136;50.600;4.608;2022-10-13T03:32:07;24.40;57.60
44433;DHT22;30136;50.600;4.608;2022-10-13T03:33:07;24.40;57.70
44433;DHT22;30136;50.600;4.608;2022-10-13T03:34:10;24.40;57.70
44433;DHT22;30136;50.600;4.608;2022-10-13T03:35:11;24.40;57.80
44433;DHT22;30136;50.600;4.608;2022-10-13T03:36:12;24.40;57.80
44433;DHT22;30136;50.600;4.608;2022-10-13T03:37:15;24.40;58.20
44433;DHT22;30136;50.600;4.608;2022-10-13T03:38:17;24.30;58.00
44433;DHT22;30136;50.600;4.608;2022-10-13T03:39:17;24.40;58.10
44433;DHT22;30136;50.600;4.608;2022-10-13T03:40:18;24.40;58.00
44433;DHT22;30136;50.600;4.608;2022-10-13T03:41:19;24.40;58.30
44433;DHT22;30136;50.600;4.608;2022-10-13T03:42:23;24.40;58.60
44433;DHT22;30136;50.600;4.608;2022-10-13T03:43:24;24.40;58.30
44433;DHT22;30136;50.600;4.608;2022-10-13T03:44:25;24.40;58.30
44433;DHT22;30136;50.600;4.608;2022-10-13T03:45:26;24.40;58.30
44433;DHT22;30136;50.600;4.608;2022-10-13T03:46:28;24.40;58.30
44433;DHT22;30136;50.600;4.608;2022-10-13T03:47:34;24.40;58.30
44433;DHT22;30136;50.600;4.608;2022-10-13T03:48:36;24.40;58.00
44433;DHT22;30136;50.600;4.608;2022-10-13T03:49:37;24.40;57.80
44433;DHT22;30136;50.600;4.608;2022-10-13T03:50:38;24.40;58.10
44433;DHT22;30136;50.600;4.608;2022-10-13T03:51:39;24.40;58.30
44433;DHT22;30136;50.600;4.608;2022-10-13T03:52:40;24.40;58.40
44433;DHT22;30136;50.600;4.608;2022-10-13T03:53:41;24.40;58.40
44433;DHT22;30136;50.600;4.608;2022-10-13T03:54:42;24.40;58.30
44433;DHT22;30136;50.600;4.608;2022-10-13T03:55:51;24.40;58.30
44433;DHT22;30136;50.600;4.608;2022-10-13T03:56:53;24.40;58.40
44433;DHT22;30136;50.600;4.608;2022-10-13T03:57:54;24.40;58.10
44433;DHT22;30136;50.600;4.608;2022-10-13T03:58:57;24.40;58.10
44433;DHT22;30136;50.600;4.608;2022-10-13T03:59:59;24.40;58.30
44433;DHT22;30136;50.600;4.608;2022-10-13T04:01:03;24.30;58.50
44433;DHT22;30136;50.600;4.608;2022-10-13T04:02:05;24.30;58.50
44433;DHT22;30136;50.600;4.608;2022-10-13T04:03:06;24.30;58.40
44433;DHT22;30136;50.600;4.608;2022-10-13T04:04:09;24.30;58.60
44433;DHT22;30136;50.600;4.608;2022-10-13T04:05:11;24.30;58.40
44433;DHT22;30136;50.600;4.608;2022-10-13T04:06:12;24.30;58.50
44433;DHT22;30136;50.600;4.608;2022-10-13T04:07:13;24.30;58.20
44433;DHT22;30136;50.600;4.608;2022-10-13T04:08:14;24.30;58.60
44433;DHT22;30136;50.600;4.608;2022-10-13T04:09:15;24.30;58.80
44433;DHT22;30136;50.600;4.608;2022-10-13T04:10:15;24.30;58.80
44433;DHT22;30136;50.600;4.608;2022-10-13T04:11:17;24.30;58.80
44433;DHT22;30136;50.600;4.608;2022-10-13T04:12:24;24.30;58.80
44433;DHT22;30136;50.600;4.608;2022-10-13T04:13:25;24.30;58.70
44433;DHT22;30136;50.600;4.608;2022-10-13T04:14:26;24.30;58.80
44433;DHT22;30136;50.600;4.608;2022-10-13T04:15:36;24.30;58.90
44433;DHT22;30136;50.600;4.608;2022-10-13T04:16:38;24.30;59.40
44433;DHT22;30136;50.600;4.608;2022-10-13T04:17:40;24.20;58.80
44433;DHT22;30136;50.600;4.608;2022-10-13T04:18:41;24.20;59.00
44433;DHT22;30136;50.600;4.608;2022-10-13T04:19:42;24.20;58.80
44433;DHT22;30136;50.600;4.608;2022-10-13T04:20:43;24.20;58.80
44433;DHT22;30136;50.600;4.608;2022-10-13T04:21:44;24.20;58.90
44433;DHT22;30136;50.600;4.608;2022-10-13T04:22:45;24.20;58.80
44433;DHT22;30136;50.600;4.608;2022-10-13T04:23:45;24.20;58.70
44433;DHT22;30136;50.600;4.608;2022-10-13T04:24:46;24.20;58.80
44433;DHT22;30136;50.600;4.608;2022-10-13T04:25:47;24.20;58.60
44433;DHT22;30136;50.600;4.608;2022-10-13T04:26:48;24.20;58.80
44433;DHT22;30136;50.600;4.608;2022-10-13T04:27:49;24.20;58.60
44433;DHT22;30136;50.600;4.608;2022-10-13T04:28:51;24.20;58.60
44433;DHT22;30136;50.600;4.608;2022-10-13T04:29:52;24.20;59.10
44433;DHT22;30136;50.600;4.608;2022-10-13T04:30:53;24.20;58.80
44433;DHT22;30136;50.600;4.608;2022-10-13T04:31:54;24.20;58.90
44433;DHT22;30136;50.600;4.608;2022-10-13T04:32:55;24.20;58.90
44433;DHT22;30136;50.600;4.608;2022-10-13T04:33:56;24.20;58.80
44433;DHT22;30136;50.600;4.608;2022-10-13T04:34:57;24.20;59.40
44433;DHT22;30136;50.600;4.608;2022-10-13T04:35:58;24.20;59.10
44433;DHT22;30136;50.600;4.608;2022-10-13T04:36:58;24.20;58.60
44433;DHT22;30136;50.600;4.608;2022-10-13T04:37:59;24.20;58.40
44433;DHT22;30136;50.600;4.608;2022-10-13T04:39:00;24.20;58.50
44433;DHT22;30136;50.600;4.608;2022-10-13T04:40:02;24.20;58.50
44433;DHT22;30136;50.600;4.608;2022-10-13T04:41:04;24.20;58.30
44433;DHT22;30136;50.600;4.608;2022-10-13T04:42:06;24.20;58.30
44433;DHT22;30136;50.600;4.608;2022-10-13T04:43:10;24.20;58.40
44433;DHT22;30136;50.600;4.608;2022-10-13T04:44:11;24.20;58.40
44433;DHT22;30136;50.600;4.608;2022-10-13T04:45:12;24.20;58.30
44433;DHT22;30136;50.600;4.608;2022-10-13T04:46:17;24.20;58.20
44433;DHT22;30136;50.600;4.608;2022-10-13T04:47:22;24.20;58.40
44433;DHT22;30136;50.600;4.608;2022-10-13T04:48:23;24.20;59.00
44433;DHT22;30136;50.600;4.608;2022-10-13T04:49:24;24.20;58.80
44433;DHT22;30136;50.600;4.608;2022-10-13T04:50:25;24.20;58.90
44433;DHT22;30136;50.600;4.608;2022-10-13T04:51:31;24.20;58.70
44433;DHT22;30136;50.600;4.608;2022-10-13T04:52:33;24.20;58.40
44433;DHT22;30136;50.600;4.608;2022-10-13T04:53:34;24.10;58.80
44433;DHT22;30136;50.600;4.608;2022-10-13T04:54:36;24.10;58.90
44433;DHT22;30136;50.600;4.608;2022-10-13T04:55:36;24.10;58.80
44433;DHT22;30136;50.600;4.608;2022-10-13T04:56:37;24.20;59.10
44433;DHT22;30136;50.600;4.608;2022-10-13T04:57:38;24.20;59.10
44433;DHT22;30136;50.600;4.608;2022-10-13T04:58:40;24.20;59.20
44433;DHT22;30136;50.600;4.608;2022-10-13T04:59:42;24.20;58.90
44433;DHT22;30136;50.600;4.608;2022-10-13T05:00:45;24.20;59.20
44433;DHT22;30136;50.600;4.608;2022-10-13T05:01:46;24.10;58.90
44433;DHT22;30136;50.600;4.608;2022-10-13T05:02:47;24.10;58.90
44433;DHT22;30136;50.600;4.608;2022-10-13T05:03:56;24.10;59.30
44433;DHT22;30136;50.600;4.608;2022-10-13T05:04:58;24.10;59.20
44433;DHT22;30136;50.600;4.608;2022-10-13T05:05:59;24.10;59.30
44433;DHT22;30136;50.600;4.608;2022-10-13T05:07:00;24.10;59.10
44433;DHT22;30136;50.600;4.608;2022-10-13T05:08:00;24.10;59.30
44433;DHT22;30136;50.600;4.608;2022-10-13T05:09:02;24.10;59.00
44433;DHT22;30136;50.600;4.608;2022-10-13T05:10:03;24.20;58.90
44433;DHT22;30136;50.600;4.608;2022-10-13T05:11:04;24.10;59.00
44433;DHT22;30136;50.600;4.608;2022-10-13T05:12:05;24.10;59.20
44433;DHT22;30136;50.600;4.608;2022-10-13T05:13:06;24.10;59.10
44433;DHT22;30136;50.600;4.608;2022-10-13T05:14:07;24.10;58.80
44433;DHT22;30136;50.600;4.608;2022-10-13T05:15:08;24.10;59.10
44433;DHT22;30136;50.600;4.608;2022-10-13T05:16:11;24.10;59.30
44433;DHT22;30136;50.600;4.608;2022-10-13T05:17:13;24.10;59.20
44433;DHT22;30136;50.600;4.608;2022-10-13T05:18:14;24.10;59.30
44433;DHT22;30136;50.600;4.608;2022-10-13T05:19:15;24.10;59.30
44433;DHT22;30136;50.600;4.608;2022-10-13T05:20:16;24.10;59.40
44433;DHT22;30136;50.600;4.608;2022-10-13T05:21:23;24.10;59.00
44433;DHT22;30136;50.600;4.608;2022-10-13T05:22:27;24.10;59.30
44433;DHT22;30136;50.600;4.608;2022-10-13T05:23:28;24.10;59.20
44433;DHT22;30136;50.600;4.608;2022-10-13T05:24:29;24.10;59.10
44433;DHT22;30136;50.600;4.608;2022-10-13T05:25:36;24.10;59.20
44433;DHT22;30136;50.600;4.608;2022-10-13T05:26:37;24.10;59.30
44433;DHT22;30136;50.600;4.608;2022-10-13T05:27:38;24.10;59.20
44433;DHT22;30136;50.600;4.608;2022-10-13T05:28:43;24.10;59.40
44433;DHT22;30136;50.600;4.608;2022-10-13T05:29:44;24.10;59.10
44433;DHT22;30136;50.600;4.608;2022-10-13T05:30:45;24.10;58.80
44433;DHT22;30136;50.600;4.608;2022-10-13T05:31:46;24.10;59.10
44433;DHT22;30136;50.600;4.608;2022-10-13T05:32:46;24.10;59.30
44433;DHT22;30136;50.600;4.608;2022-10-13T05:33:48;24.10;59.00
44433;DHT22;30136;50.600;4.608;2022-10-13T05:34:56;24.10;58.90
44433;DHT22;30136;50.600;4.608;2022-10-13T05:36:03;24.10;58.80
44433;DHT22;30136;50.600;4.608;2022-10-13T05:37:11;24.10;59.00
44433;DHT22;30136;50.600;4.608;2022-10-13T05:38:11;24.00;59.30
44433;DHT22;30136;50.600;4.608;2022-10-13T05:39:12;23.90;59.50
44433;DHT22;30136;50.600;4.608;2022-10-13T05:40:13;23.80;59.80
44433;DHT22;30136;50.600;4.608;2022-10-13T05:41:14;23.80;60.00
44433;DHT22;30136;50.600;4.608;2022-10-13T05:42:15;23.80;59.90
44433;DHT22;30136;50.600;4.608;2022-10-13T05:43:16;23.90;59.70
44433;DHT22;30136;50.600;4.608;2022-10-13T05:44:17;24.00;59.40
44433;DHT22;30136;50.600;4.608;2022-10-13T05:45:28;24.10;59.10
44433;DHT22;30136;50.600;4.608;2022-10-13T05:46:32;24.20;58.80
44433;DHT22;30136;50.600;4.608;2022-10-13T05:47:33;24.20;58.50
44433;DHT22;30136;50.600;4.608;2022-10-13T05:48:34;24.30;58.40
44433;DHT22;30136;50.600;4.608;2022-10-13T05:49:35;24.30;58.20
44433;DHT22;30136;50.600;4.608;2022-10-13T05:50:39;24.40;58.10
44433;DHT22;30136;50.600;4.608;2022-10-13T05:51:43;24.40;58.00
44433;DHT22;30136;50.600;4.608;2022-10-13T05:52:46;24.40;58.00
44433;DHT22;30136;50.600;4.608;2022-10-13T05:55:07;24.50;57.80
44433;DHT22;30136;50.600;4.608;2022-10-13T05:56:14;24.50;57.80
44433;DHT22;30136;50.600;4.608;2022-10-13T05:57:29;24.50;57.70
44433;DHT22;30136;50.600;4.608;2022-10-13T05:58:36;24.50;57.70
44433;DHT22;30136;50.600;4.608;2022-10-13T05:59:43;24.50;57.60
44433;DHT22;30136;50.600;4.608;2022-10-13T06:00:55;24.50;57.50
44433;DHT22;30136;50.600;4.608;2022-10-13T06:01:56;24.60;57.50
44433;DHT22;30136;50.600;4.608;2022-10-13T06:03:04;24.60;57.40
44433;DHT22;30136;50.600;4.608;2022-10-13T06:04:14;24.60;57.40
44433;DHT22;30136;50.600;4.608;2022-10-13T06:05:20;24.50;58.50
44433;DHT22;30136;50.600;4.608;2022-10-13T06:06:26;24.40;58.90
44433;DHT22;30136;50.600;4.608;2022-10-13T06:07:28;24.20;59.40
44433;DHT22;30136;50.600;4.608;2022-10-13T06:08:29;24.10;59.60
44433;DHT22;30136;50.600;4.608;2022-10-13T06:09:32;24.00;59.80
44433;DHT22;30136;50.600;4.608;2022-10-13T06:10:36;24.00;60.00
44433;DHT22;30136;50.600;4.608;2022-10-13T06:11:37;23.90;60.10
44433;DHT22;30136;50.600;4.608;2022-10-13T06:12:38;24.00;60.20
44433;DHT22;30136;50.600;4.608;2022-10-13T06:13:39;23.90;60.10
44433;DHT22;30136;50.600;4.608;2022-10-13T06:14:40;23.90;60.00
44433;DHT22;30136;50.600;4.608;2022-10-13T06:15:45;23.90;59.90
44433;DHT22;30136;50.600;4.608;2022-10-13T06:16:46;24.00;59.90
44433;DHT22;30136;50.600;4.608;2022-10-13T06:17:46;23.90;59.90
44433;DHT22;30136;50.600;4.608;2022-10-13T06:18:47;24.00;59.80
44433;DHT22;30136;50.600;4.608;2022-10-13T06:19:48;24.00;59.80
44433;DHT22;30136;50.600;4.608;2022-10-13T06:20:49;24.00;59.70
44433;DHT22;30136;50.600;4.608;2022-10-13T06:21:51;24.00;59.60
44433;DHT22;30136;50.600;4.608;2022-10-13T06:22:56;24.00;59.50
44433;DHT22;30136;50.600;4.608;2022-10-13T06:23:57;24.10;59.50
44433;DHT22;30136;50.600;4.608;2022-10-13T06:24:58;24.10;59.30
44433;DHT22;30136;50.600;4.608;2022-10-13T06:25:59;24.10;59.20
44433;DHT22;30136;50.600;4.608;2022-10-13T06:26:59;24.20;59.10
44433;DHT22;30136;50.600;4.608;2022-10-13T06:28:00;24.20;58.90
44433;DHT22;30136;50.600;4.608;2022-10-13T06:29:01;24.20;58.80
44433;DHT22;30136;50.600;4.608;2022-10-13T06:30:03;24.30;58.70
44433;DHT22;30136;50.600;4.608;2022-10-13T06:31:05;24.30;58.50
44433;DHT22;30136;50.600;4.608;2022-10-13T06:32:06;24.40;58.50
44433;DHT22;30136;50.600;4.608;2022-10-13T06:33:07;24.40;58.30
44433;DHT22;30136;50.600;4.608;2022-10-13T06:34:09;24.40;58.20
44433;DHT22;30136;50.600;4.608;2022-10-13T06:35:10;24.40;58.10
44433;DHT22;30136;50.600;4.608;2022-10-13T06:36:11;24.40;58.50
44433;DHT22;30136;50.600;4.608;2022-10-13T06:37:11;24.50;57.80
44433;DHT22;30136;50.600;4.608;2022-10-13T06:38:12;24.50;57.70
44433;DHT22;30136;50.600;4.608;2022-10-13T06:39:15;24.50;57.60
44433;DHT22;30136;50.600;4.608;2022-10-13T06:40:16;24.60;57.50
44433;DHT22;30136;50.600;4.608;2022-10-13T06:41:17;24.60;57.50
44433;DHT22;30136;50.600;4.608;2022-10-13T06:42:17;24.60;57.40
44433;DHT22;30136;50.600;4.608;2022-10-13T06:43:18;24.60;57.30
44433;DHT22;30136;50.600;4.608;2022-10-13T06:44:20;24.60;57.20
44433;DHT22;30136;50.600;4.608;2022-10-13T06:45:20;24.70;57.20
44433;DHT22;30136;50.600;4.608;2022-10-13T06:46:21;24.70;57.10
44433;DHT22;30136;50.600;4.608;2022-10-13T06:47:22;24.70;57.00
44433;DHT22;30136;50.600;4.608;2022-10-13T06:48:23;24.60;57.00
44433;DHT22;30136;50.600;4.608;2022-10-13T06:49:24;24.60;57.40
44433;DHT22;30136;50.600;4.608;2022-10-13T06:50:25;24.60;57.90
44433;DHT22;30136;50.600;4.608;2022-10-13T06:51:26;24.60;58.10
44433;DHT22;30136;50.600;4.608;2022-10-13T06:52:27;24.60;58.20
44433;DHT22;30136;50.600;4.608;2022-10-13T06:53:28;24.60;58.30
44433;DHT22;30136;50.600;4.608;2022-10-13T06:54:29;24.60;58.30
44433;DHT22;30136;50.600;4.608;2022-10-13T06:55:30;24.60;58.10
44433;DHT22;30136;50.600;4.608;2022-10-13T06:56:31;24.60;58.00
44433;DHT22;30136;50.600;4.608;2022-10-13T06:57:33;24.60;58.10
44433;DHT22;30136;50.600;4.608;2022-10-13T06:58:37;24.60;58.20
44433;DHT22;30136;50.600;4.608;2022-10-13T06:59:38;24.60;58.30
44433;DHT22;30136;50.600;4.608;2022-10-13T07:00:39;24.60;58.30
44433;DHT22;30136;50.600;4.608;2022-10-13T07:01:41;24.60;57.90
44433;DHT22;30136;50.600;4.608;2022-10-13T07:02:49;24.60;57.80
44433;DHT22;30136;50.600;4.608;2022-10-13T07:03:51;24.60;57.70
44433;DHT22;30136;50.600;4.608;2022-10-13T07:04:54;24.60;57.60
44433;DHT22;30136;50.600;4.608;2022-10-13T07:06:03;24.60;57.60
44433;DHT22;30136;50.600;4.608;2022-10-13T07:07:04;24.70;57.60
44433;DHT22;30136;50.600;4.608;2022-10-13T07:08:05;24.60;57.50
44433;DHT22;30136;50.600;4.608;2022-10-13T07:09:07;24.60;57.50
44433;DHT22;30136;50.600;4.608;2022-10-13T07:10:08;24.70;57.50
44433;DHT22;30136;50.600;4.608;2022-10-13T07:11:10;24.70;57.50
44433;DHT22;30136;50.600;4.608;2022-10-13T07:12:13;24.60;57.50